Time;durP1;ratioP1;P1;durP2;ratioP2;P2;SDS_P1;SDS_P2;PMS_P1;PMS_P2;Temp;Humidity;BMP_temperature;BMP_pressure;BME280_temperature;BME280_humidity;BME280_pressure;Samples;Min_cycle;Max_cycle;Signal;HPM_P1;HPM_P2
2023/02/07 00:01:10;;;;;;;6.00;4.97;;;2.70;1.00;;;;;;4997635;28;20637;-77
2023/02/07 00:03:38;;;;;;;5.70;5.20;;;2.70;1.00;;;;;;4994613;28;20215;-77
2023/02/07 00:06:07;;;;;;;6.82;6.13;;;2.70;1.00;;;;;;4998069;28;20211;-77
2023/02/07 00:08:36;;;;;;;5.20;4.80;;;2.70;1.00;;;;;;4999788;28;20210;-77
2023/02/07 00:11:05;;;;;;;5.95;4.90;;;2.70;1.00;;;;;;4996610;28;20284;-77
2023/02/07 00:13:34;;;;;;;6.60;5.53;;;2.70;1.00;;;;;;4997934;28;20225;-76
2023/02/07 00:16:05;;;;;;;7.32;5.30;;;2.50;99.90;;;;;;4996875;28;20683;-78
2023/02/07 00:18:34;;;;;;;6.60;5.90;;;2.40;99.90;;;;;;4999846;28;20210;-76
2023/02/07 00:21:04;;;;;;;6.25;5.65;;;2.30;99.90;;;;;;4999310;28;20646;-77
2023/02/07 00:23:33;;;;;;;6.95;4.80;;;2.10;99.90;;;;;;4995087;28;21433;-77
2023/02/07 00:26:01;;;;;;;6.28;5.18;;;1.90;99.90;;;;;;4998161;28;20490;-77
2023/02/07 00:28:30;;;;;;;5.63;4.53;;;1.90;99.90;;;;;;4998067;28;20679;-77
2023/02/07 00:31:08;;;;;;;5.50;4.57;;;1.90;99.90;;;;;;4993695;28;20306;-77
2023/02/07 00:33:37;;;;;;;5.65;4.78;;;1.80;99.90;;;;;;4995617;28;20299;-77
2023/02/07 00:36:08;;;;;;;5.82;5.22;;;1.60;99.90;;;;;;4995205;28;20196;-76
2023/02/07 00:38:37;;;;;;;6.70;4.93;;;1.70;99.90;;;;;;4993299;28;20199;-77
2023/02/07 00:41:05;;;;;;;5.65;3.90;;;1.70;99.90;;;;;;4997007;28;20267;-77
2023/02/07 00:43:34;;;;;;;6.18;5.07;;;1.50;99.90;;;;;;4999203;28;20873;-76
2023/02/07 00:46:05;;;;;;;7.55;5.50;;;1.60;99.90;;;;;;4998305;28;20660;-76
2023/02/07 00:48:34;;;;;;;10.52;7.03;;;1.60;99.90;;;;;;4997225;28;21788;-76
2023/02/07 00:51:03;;;;;;;8.63;6.15;;;1.70;99.90;;;;;;4997490;28;20250;-77
2023/02/07 00:53:31;;;;;;;5.75;5.25;;;1.70;99.90;;;;;;4993193;28;20843;-77
2023/02/07 00:55:59;;;;;;;6.78;5.88;;;1.70;99.90;;;;;;4996282;28;20215;-77
2023/02/07 00:58:27;;;;;;;6.25;5.65;;;1.70;99.90;;;;;;4994986;28;20260;-76
2023/02/07 01:00:55;;;;;;;6.95;5.40;;;1.70;99.90;;;;;;5000820;28;20353;-77
2023/02/07 01:03:24;;;;;;;10.93;5.95;;;1.70;99.90;;;;;;4992011;28;20242;-77
2023/02/07 01:05:53;;;;;;;6.35;5.60;;;1.60;99.90;;;;;;5000415;28;20268;-77
2023/02/07 01:08:21;;;;;;;8.70;5.90;;;1.60;99.90;;;;;;5000584;28;20218;-77
2023/02/07 01:10:49;;;;;;;8.05;6.32;;;1.60;99.90;;;;;;5003151;28;20226;-77
2023/02/07 01:13:18;;;;;;;6.57;5.05;;;1.60;99.90;;;;;;4999968;28;20277;-77
2023/02/07 01:15:48;;;;;;;7.07;6.00;;;1.70;99.90;;;;;;4999942;28;20213;-76
2023/02/07 01:18:16;;;;;;;6.03;5.30;;;1.60;99.90;;;;;;4995759;28;20647;-75
2023/02/07 01:20:45;;;;;;;6.70;6.00;;;1.60;99.90;;;;;;4999924;28;20310;-77
2023/02/07 01:23:14;;;;;;;8.80;6.88;;;1.60;99.90;;;;;;5000158;28;20241;-77
2023/02/07 01:25:43;;;;;;;7.55;6.22;;;1.40;99.90;;;;;;4997635;28;20727;-77
2023/02/07 01:28:12;;;;;;;7.40;6.70;;;1.50;99.90;;;;;;5001772;28;20272;-77
2023/02/07 01:30:41;;;;;;;7.05;6.35;;;1.50;99.90;;;;;;4995552;28;20223;-78
2023/02/07 01:33:10;;;;;;;6.40;5.47;;;1.40;99.90;;;;;;4998307;28;20202;-77
2023/02/07 01:35:38;;;;;;;8.43;7.00;;;1.40;99.90;;;;;;4994210;28;20287;-78
2023/02/07 01:38:07;;;;;;;12.02;6.30;;;1.30;99.90;;;;;;4995171;28;20238;-77
2023/02/07 01:40:38;;;;;;;8.90;6.60;;;1.20;99.90;;;;;;5002949;28;20234;-77
2023/02/07 01:43:06;;;;;;;7.22;5.40;;;1.30;99.90;;;;;;4994168;28;20309;-77
2023/02/07 01:45:36;;;;;;;8.07;6.60;;;1.20;99.90;;;;;;4995740;28;20198;-76
2023/02/07 01:48:08;;;;;;;7.07;5.45;;;1.30;99.90;;;;;;4992146;28;20202;-76
2023/02/07 01:50:37;;;;;;;6.82;5.97;;;1.30;99.90;;;;;;4993592;28;20231;-77
2023/02/07 01:53:06;;;;;;;8.57;6.65;;;1.30;99.90;;;;;;4993887;28;20205;-78
2023/02/07 01:55:40;;;;;;;6.53;5.40;;;1.50;99.90;;;;;;4996491;28;20234;-76
2023/02/07 01:58:08;;;;;;;7.07;6.10;;;1.50;99.90;;;;;;4993536;28;20207;-77
2023/02/07 02:00:38;;;;;;;6.57;5.63;;;1.60;99.90;;;;;;4997098;28;20246;-76
2023/02/07 02:03:06;;;;;;;10.10;6.15;;;1.80;99.90;;;;;;4994586;28;20207;-76
2023/02/07 02:05:36;;;;;;;7.72;5.82;;;1.70;99.90;;;;;;5000416;28;20293;-76
2023/02/07 02:08:05;;;;;;;6.05;5.22;;;1.70;99.90;;;;;;4999469;28;20652;-76
2023/02/07 02:10:53;;;;;;;6.50;5.90;;;1.70;99.90;;;;;;4997650;28;20219;-76
2023/02/07 02:13:28;;;;;;;7.32;6.45;;;1.70;99.90;;;;;;5000634;28;20207;-76
2023/02/07 02:16:04;;;;;;;7.30;6.57;;;1.70;99.90;;;;;;4995350;28;20735;-76
2023/02/07 02:18:46;;;;;;;6.95;6.20;;;1.80;99.90;;;;;;4995800;28;20892;-76
2023/02/07 02:21:51;;;;;;;10.30;5.75;;;1.70;99.90;;;;;;4994691;28;20270;-76
2023/02/07 02:24:44;;;;;;;7.35;6.30;;;1.60;99.90;;;;;;4983788;28;20302;-76
2023/02/07 02:27:26;;;;;;;8.75;6.78;;;1.60;99.90;;;;;;4996974;28;20309;-76
2023/02/07 02:30:24;;;;;;;7.43;6.72;;;1.40;99.90;;;;;;4995407;28;20219;-76
2023/02/07 02:33:14;;;;;;;7.85;6.57;;;1.50;99.90;;;;;;4996807;28;20249;-76
2023/02/07 02:35:51;;;;;;;13.63;7.35;;;1.40;99.90;;;;;;4998499;28;20230;-76
2023/02/07 02:38:26;;;;;;;9.70;7.05;;;1.40;99.90;;;;;;5001060;28;20686;-77
2023/02/07 02:40:58;;;;;;;10.38;8.68;;;1.40;99.90;;;;;;4997937;28;20714;-77
2023/02/07 02:43:33;;;;;;;7.72;7.00;;;1.40;99.90;;;;;;4999732;28;20231;-76
2023/02/07 02:46:05;;;;;;;12.00;7.95;;;1.40;99.90;;;;;;4990821;28;20215;-75
2023/02/07 02:48:36;;;;;;;9.73;7.15;;;1.40;99.90;;;;;;4991529;28;20203;-76
2023/02/07 02:51:05;;;;;;;11.65;8.15;;;1.30;99.90;;;;;;4994478;28;20288;-76
2023/02/07 02:53:33;;;;;;;9.10;7.60;;;1.30;99.90;;;;;;4994021;28;20342;-77
2023/02/07 02:56:34;;;;;;;11.30;8.02;;;1.10;99.90;;;;;;4997506;28;20222;-76
2023/02/07 02:59:33;;;;;;;9.40;8.32;;;1.20;99.90;;;;;;4999934;28;20204;-76
2023/02/07 03:02:12;;;;;;;11.23;8.65;;;1.10;99.90;;;;;;5001746;28;20211;-76
2023/02/07 03:04:54;;;;;;;9.55;7.50;;;0.90;99.90;;;;;;4998516;28;20231;-76
2023/02/07 03:07:41;;;;;;;9.13;8.00;;;0.90;99.90;;;;;;4999605;28;20203;-76
2023/02/07 03:10:18;;;;;;;9.00;8.10;;;0.90;99.90;;;;;;4996894;28;20211;-76
2023/02/07 03:12:54;;;;;;;9.02;8.05;;;0.60;99.90;;;;;;4998986;28;20756;-77
2023/02/07 03:15:32;;;;;;;9.80;7.90;;;0.50;99.90;;;;;;5000030;28;20256;-77
2023/02/07 03:18:06;;;;;;;10.65;7.78;;;0.50;99.90;;;;;;4998679;28;20301;-77
2023/02/07 03:20:39;;;;;;;7.80;6.97;;;0.50;99.90;;;;;;4998918;28;20611;-76
2023/02/07 03:23:10;;;;;;;9.02;7.45;;;0.60;99.90;;;;;;4998420;28;20218;-76
2023/02/07 03:25:39;;;;;;;13.00;8.93;;;0.50;99.90;;;;;;4999211;28;20202;-78
2023/02/07 03:28:10;;;;;;;9.88;7.63;;;0.50;99.90;;;;;;4998170;28;20488;-76
2023/02/07 03:30:40;;;;;;;9.70;8.45;;;0.40;99.90;;;;;;4998675;28;20708;-75
2023/02/07 03:33:12;;;;;;;10.32;9.23;;;0.30;99.90;;;;;;5000772;28;20219;-76
2023/02/07 03:35:49;;;;;;;14.48;9.82;;;0.50;99.90;;;;;;4997772;28;20242;-76
2023/02/07 03:38:17;;;;;;;12.25;8.88;;;0.30;99.90;;;;;;4997514;28;20614;-76
2023/02/07 03:40:50;;;;;;;10.27;8.52;;;0.40;99.90;;;;;;5001447;28;20214;-76
2023/02/07 03:43:22;;;;;;;11.18;7.93;;;0.30;99.90;;;;;;4998777;28;20293;-77
2023/02/07 03:45:50;;;;;;;10.00;8.77;;;0.30;99.90;;;;;;4995074;28;21082;-77
2023/02/07 03:48:18;;;;;;;8.95;7.80;;;0.30;99.90;;;;;;5000843;28;20284;-77
2023/02/07 03:50:50;;;;;;;11.63;9.73;;;0.30;99.90;;;;;;4994976;28;20693;-76
2023/02/07 03:53:19;;;;;;;10.45;8.73;;;0.50;99.90;;;;;;4995673;28;20228;-77
2023/02/07 03:55:47;;;;;;;10.07;9.07;;;0.50;99.90;;;;;;4997641;28;20204;-75
2023/02/07 03:58:15;;;;;;;12.18;8.98;;;0.40;99.90;;;;;;4994098;28;20240;-77
2023/02/07 04:00:43;;;;;;;15.23;9.75;;;0.50;99.90;;;;;;4996237;28;20256;-76
2023/02/07 04:03:11;;;;;;;11.95;9.57;;;0.40;99.90;;;;;;4995096;28;20214;-76
2023/02/07 04:05:40;;;;;;;12.18;9.25;;;0.40;99.90;;;;;;4998740;28;20203;-75
2023/02/07 04:08:09;;;;;;;12.35;9.90;;;0.30;99.90;;;;;;4996958;28;20293;-76
2023/02/07 04:10:37;;;;;;;13.43;10.43;;;0.40;99.90;;;;;;4997969;28;20301;-77
2023/02/07 04:13:05;;;;;;;12.77;10.30;;;0.40;99.90;;;;;;4999116;28;20325;-76
2023/02/07 04:15:34;;;;;;;11.00;9.90;;;0.30;99.90;;;;;;4998366;28;20203;-77
2023/02/07 04:18:02;;;;;;;13.73;9.35;;;0.30;99.90;;;;;;4996749;28;20265;-77
2023/02/07 04:20:30;;;;;;;10.23;9.23;;;0.40;99.90;;;;;;4996420;28;20617;-77
2023/02/07 04:22:58;;;;;;;13.45;9.88;;;0.30;99.90;;;;;;4998274;28;20190;-77
2023/02/07 04:25:27;;;;;;;11.48;9.80;;;0.30;99.90;;;;;;4992611;28;20198;-76
2023/02/07 04:27:55;;;;;;;11.40;9.95;;;0.30;99.90;;;;;;4995794;28;20283;-77
2023/02/07 04:30:23;;;;;;;15.63;11.13;;;0.40;99.90;;;;;;4993462;28;20892;-76
2023/02/07 04:32:52;;;;;;;19.40;11.30;;;0.20;99.90;;;;;;4991482;28;20232;-77
2023/02/07 04:35:20;;;;;;;15.70;10.80;;;0.20;99.90;;;;;;4989460;28;20208;-75
2023/02/07 04:37:48;;;;;;;15.52;11.10;;;0.20;99.90;;;;;;4996298;28;20207;-76
2023/02/07 04:40:17;;;;;;;14.45;10.90;;;0.30;99.90;;;;;;4996206;28;20242;-76
2023/02/07 04:42:46;;;;;;;13.30;11.55;;;0.30;99.90;;;;;;4996483;28;20221;-76
2023/02/07 04:45:14;;;;;;;13.80;10.15;;;0.30;99.90;;;;;;4994614;28;20199;-76
2023/02/07 04:47:43;;;;;;;13.55;10.73;;;0.20;99.90;;;;;;4994713;28;20206;-76
2023/02/07 04:50:11;;;;;;;11.80;10.15;;;0.10;99.90;;;;;;4990536;28;20218;-77
2023/02/07 04:52:40;;;;;;;14.13;10.90;;;0.10;99.90;;;;;;4997229;28;20222;-75
2023/02/07 04:55:09;;;;;;;15.32;11.25;;;0.10;99.90;;;;;;4995187;28;20213;-76
2023/02/07 04:57:37;;;;;;;14.73;10.55;;;0.00;99.90;;;;;;4994633;28;20214;-75
2023/02/07 05:00:07;;;;;;;11.95;10.57;;;0.20;99.90;;;;;;4994174;28;20237;-76
2023/02/07 05:02:36;;;;;;;14.57;10.13;;;0.20;99.90;;;;;;4996616;28;20206;-76
2023/02/07 05:05:04;;;;;;;13.50;10.73;;;0.20;99.90;;;;;;4989152;28;20267;-75
2023/02/07 05:07:32;;;;;;;11.95;10.70;;;0.30;99.90;;;;;;5002037;28;20263;-76
2023/02/07 05:10:00;;;;;;;11.38;9.70;;;0.30;99.90;;;;;;4995302;28;20222;-76
2023/02/07 05:12:28;;;;;;;12.35;11.07;;;0.10;99.90;;;;;;4997220;28;20959;-77
2023/02/07 05:14:56;;;;;;;14.20;11.40;;;0.10;99.90;;;;;;4994574;28;20203;-74
2023/02/07 05:17:29;;;;;;;13.77;11.20;;;0.00;99.90;;;;;;4997537;28;20574;-76
2023/02/07 05:19:57;;;;;;;16.95;10.73;;;-0.10;99.90;;;;;;4993163;28;20280;-76
2023/02/07 05:22:25;;;;;;;14.00;11.23;;;-0.20;99.90;;;;;;4995568;28;20718;-76
2023/02/07 05:24:53;;;;;;;11.30;9.88;;;-0.10;99.90;;;;;;4993876;28;20207;-77
2023/02/07 05:27:21;;;;;;;12.75;10.23;;;-0.10;99.90;;;;;;4993850;28;20745;-77
2023/02/07 05:29:49;;;;;;;13.40;10.20;;;-0.20;99.90;;;;;;4994233;28;20302;-77
2023/02/07 05:35:05;;;;;;;12.13;10.13;;;-0.10;99.90;;;;;;4995565;28;20221;-79
2023/02/07 05:37:33;;;;;;;12.75;9.80;;;-0.20;99.90;;;;;;4997528;28;20576;-79
2023/02/07 05:40:01;;;;;;;14.30;11.10;;;-0.20;99.90;;;;;;4994612;28;20229;-78
2023/02/07 05:42:30;;;;;;;10.48;9.38;;;-0.10;99.90;;;;;;4989472;28;20202;-78
2023/02/07 05:44:58;;;;;;;11.05;9.02;;;0.00;99.90;;;;;;4995933;28;20280;-78
2023/02/07 05:47:26;;;;;;;11.65;9.60;;;0.20;99.90;;;;;;4998629;28;20290;-78
2023/02/07 05:49:54;;;;;;;15.10;9.80;;;0.20;99.90;;;;;;4993032;28;20223;-79
2023/02/07 05:52:23;;;;;;;11.82;9.98;;;0.10;99.90;;;;;;4992604;28;20202;-78
2023/02/07 05:54:51;;;;;;;12.07;10.38;;;0.10;99.90;;;;;;4990400;28;20706;-78
2023/02/07 05:57:20;;;;;;;11.82;10.55;;;0.00;99.90;;;;;;4994072;28;20209;-78
2023/02/07 05:59:48;;;;;;;10.77;9.45;;;0.10;99.90;;;;;;4986996;28;20224;-78
2023/02/07 06:02:16;;;;;;;12.13;10.50;;;0.00;99.90;;;;;;4994339;28;20378;-77
2023/02/07 06:04:44;;;;;;;15.30;11.93;;;0.10;99.90;;;;;;4996087;28;20293;-78
2023/02/07 06:07:12;;;;;;;14.77;11.55;;;0.00;99.90;;;;;;5003016;28;20959;-78
2023/02/07 06:09:42;;;;;;;11.35;8.77;;;-0.10;99.90;;;;;;5005632;28;20280;-78
2023/02/07 06:12:10;;;;;;;10.52;9.40;;;-0.10;99.90;;;;;;5000135;28;20350;-78
2023/02/07 06:14:38;;;;;;;11.60;9.45;;;0.00;99.90;;;;;;4995999;28;21826;-78
2023/02/07 06:17:06;;;;;;;13.77;8.90;;;0.10;99.90;;;;;;4996256;28;20210;-78
2023/02/07 06:19:34;;;;;;;12.02;9.82;;;0.20;99.90;;;;;;5001061;28;20252;-77
2023/02/07 06:22:02;;;;;;;11.60;8.40;;;0.10;99.90;;;;;;4999299;28;20194;-78
2023/02/07 06:24:30;;;;;;;9.85;8.30;;;0.00;99.90;;;;;;4997159;28;20202;-79
2023/02/07 06:27:00;;;;;;;10.35;9.25;;;-0.10;99.90;;;;;;4991047;28;22944;-78
2023/02/07 06:29:28;;;;;;;9.93;8.52;;;-0.10;99.90;;;;;;4995915;28;20238;-77
2023/02/07 06:31:56;;;;;;;10.15;7.82;;;0.00;99.90;;;;;;4992486;28;20254;-77
2023/02/07 06:34:24;;;;;;;9.85;8.75;;;0.00;99.90;;;;;;4991684;28;20427;-78
2023/02/07 06:36:52;;;;;;;14.15;9.45;;;0.00;99.90;;;;;;4994900;28;20229;-78
2023/02/07 06:39:20;;;;;;;10.20;8.65;;;0.00;99.90;;;;;;4995635;28;20207;-77
2023/02/07 06:41:48;;;;;;;13.07;8.70;;;-0.10;99.90;;;;;;4995701;28;20225;-79
2023/02/07 06:44:18;;;;;;;9.85;8.77;;;0.10;99.90;;;;;;4996417;28;20226;-79
2023/02/07 06:46:46;;;;;;;9.68;8.07;;;0.10;99.90;;;;;;4993802;28;20253;-78
2023/02/07 06:49:14;;;;;;;10.77;9.68;;;-0.10;99.90;;;;;;4997355;28;20206;-77
2023/02/07 06:51:42;;;;;;;10.23;8.20;;;-0.10;99.90;;;;;;5027551;28;20191;-78
2023/02/07 06:54:11;;;;;;;8.68;7.70;;;-0.30;99.90;;;;;;4995276;28;20228;-78
2023/02/07 06:56:39;;;;;;;9.32;8.43;;;-0.20;99.90;;;;;;4996438;28;20209;-79
2023/02/07 06:59:07;;;;;;;19.27;9.65;;;0.00;99.90;;;;;;4999533;28;20203;-79
2023/02/07 07:01:37;;;;;;;11.13;9.60;;;-0.10;99.90;;;;;;4998267;28;20214;-78
2023/02/07 07:04:05;;;;;;;11.13;9.27;;;0.00;99.90;;;;;;4995846;28;20203;-80
2023/02/07 07:06:33;;;;;;;10.05;9.05;;;-0.10;99.90;;;;;;5001931;28;20202;-78
2023/02/07 07:09:02;;;;;;;11.52;9.15;;;-0.10;99.90;;;;;;4994560;28;20546;-78
2023/02/07 07:11:30;;;;;;;10.43;8.77;;;-0.10;99.90;;;;;;4994851;28;20281;-79
2023/02/07 07:13:59;;;;;;;11.50;8.52;;;-0.10;99.90;;;;;;4994492;28;20622;-78
2023/02/07 07:16:27;;;;;;;11.65;8.45;;;0.00;99.90;;;;;;4993642;28;20685;-78
2023/02/07 07:18:56;;;;;;;11.27;9.98;;;-0.20;99.90;;;;;;4999695;28;20294;-77
2023/02/07 07:21:26;;;;;;;13.82;9.38;;;-0.20;99.90;;;;;;4997440;28;20300;-77
2023/02/07 07:23:54;;;;;;;11.98;8.60;;;-0.20;99.90;;;;;;4994912;28;20679;-78
2023/02/07 07:26:23;;;;;;;9.52;8.15;;;-0.30;99.90;;;;;;5002677;28;21066;-78
2023/02/07 07:28:51;;;;;;;11.40;9.02;;;-0.40;99.90;;;;;;4997553;28;20615;-77
2023/02/07 07:31:19;;;;;;;12.52;9.68;;;-0.40;99.90;;;;;;4995578;28;20287;-78
2023/02/07 07:33:47;;;;;;;11.68;9.25;;;-0.50;99.90;;;;;;4993103;28;20321;-78
2023/02/07 07:36:17;;;;;;;12.10;9.35;;;-0.40;99.90;;;;;;4988965;28;20241;-78
2023/02/07 07:38:45;;;;;;;16.92;11.43;;;-0.40;99.90;;;;;;4995969;28;20205;-78
2023/02/07 07:41:15;;;;;;;12.00;9.55;;;-0.30;99.90;;;;;;5000978;28;20223;-78
2023/02/07 07:43:43;;;;;;;12.25;9.90;;;0.00;99.90;;;;;;4999770;28;20357;-78
2023/02/07 07:46:11;;;;;;;10.85;9.45;;;0.20;99.90;;;;;;4993531;28;20225;-79
2023/02/07 07:48:39;;;;;;;11.18;8.70;;;0.30;99.90;;;;;;4998383;28;20274;-79
2023/02/07 07:51:07;;;;;;;11.18;9.40;;;0.40;99.90;;;;;;4997842;28;20218;-79
2023/02/07 07:53:36;;;;;;;10.52;9.40;;;0.60;99.90;;;;;;4995032;28;20438;-78
2023/02/07 07:56:05;;;;;;;13.55;10.00;;;0.80;99.90;;;;;;4997628;28;20206;-78
2023/02/07 07:58:33;;;;;;;14.43;10.87;;;0.80;99.90;;;;;;4954509;28;1137708;-79
2023/02/07 08:01:01;;;;;;;11.88;9.77;;;1.00;99.90;;;;;;4997863;28;20304;-80
2023/02/07 08:03:30;;;;;;;11.75;10.05;;;1.20;99.90;;;;;;5000955;28;20213;-80
2023/02/07 08:05:58;;;;;;;13.10;11.20;;;1.40;99.90;;;;;;5001553;28;20228;-79
2023/02/07 08:08:27;;;;;;;13.70;10.38;;;1.50;99.90;;;;;;5002365;28;20221;-78
2023/02/07 08:11:01;;;;;;;11.50;10.10;;;1.70;99.90;;;;;;5000616;28;20307;-78
2023/02/07 08:13:29;;;;;;;12.13;8.63;;;1.90;99.90;;;;;;4996838;28;20214;-79
2023/02/07 08:16:00;;;;;;;13.88;9.60;;;2.00;99.90;;;;;;4998547;28;20242;-79
2023/02/07 08:18:29;;;;;;;13.18;10.13;;;2.10;99.90;;;;;;4996212;28;20205;-79
2023/02/07 08:20:57;;;;;;;10.00;9.00;;;2.30;99.90;;;;;;4997980;28;21221;-79
2023/02/07 08:23:25;;;;;;;10.88;8.65;;;2.50;99.90;;;;;;4996912;28;20318;-79
2023/02/07 08:25:53;;;;;;;17.90;10.45;;;2.80;99.90;;;;;;4998697;28;20287;-79
2023/02/07 08:28:22;;;;;;;13.38;9.80;;;2.90;99.90;;;;;;4996902;28;20250;-79
2023/02/07 08:30:50;;;;;;;12.38;9.93;;;3.10;99.90;;;;;;4997187;28;20535;-80
2023/02/07 08:33:19;;;;;;;12.95;10.13;;;3.20;99.90;;;;;;4997170;28;20222;-79
2023/02/07 08:35:49;;;;;;;12.82;8.82;;;3.50;99.90;;;;;;4998709;28;20217;-80
2023/02/07 08:38:17;;;;;;;11.97;10.70;;;3.90;99.90;;;;;;4999716;28;20460;-81
2023/02/07 08:40:46;;;;;;;11.13;9.85;;;4.10;99.90;;;;;;5001587;28;20907;-81
2023/02/07 08:43:14;;;;;;;9.38;8.15;;;4.60;99.90;;;;;;5003240;28;20292;-80
2023/02/07 08:45:47;;;;;;;10.10;8.02;;;5.00;99.90;;;;;;4998469;28;20195;-80
2023/02/07 08:48:16;;;;;;;11.18;8.65;;;5.10;99.90;;;;;;5004336;28;21044;-80
2023/02/07 08:50:44;;;;;;;11.50;9.00;;;5.60;99.90;;;;;;4999197;28;20219;-80
2023/02/07 08:53:12;;;;;;;10.37;7.10;;;5.70;99.90;;;;;;4993715;28;20333;-79
2023/02/07 08:55:41;;;;;;;8.93;7.97;;;5.80;99.90;;;;;;4999072;28;20504;-81
2023/02/07 08:58:09;;;;;;;143.90;51.65;;;5.90;99.90;;;;;;4995212;28;20521;-80
2023/02/07 09:00:37;;;;;;;17.63;10.60;;;6.20;99.90;;;;;;4995199;28;20308;-80
2023/02/07 09:03:07;;;;;;;10.30;8.80;;;6.20;99.90;;;;;;4999704;28;20507;-80
2023/02/07 09:05:36;;;;;;;9.32;8.50;;;6.30;99.90;;;;;;4999415;28;20452;-80
2023/02/07 09:08:04;;;;;;;9.23;7.73;;;6.40;99.90;;;;;;4998027;28;20670;-80
2023/02/07 09:10:32;;;;;;;10.57;8.80;;;6.10;99.90;;;;;;4999842;28;20897;-80
2023/02/07 09:13:02;;;;;;;8.20;7.20;;;6.10;99.90;;;;;;5000569;28;20457;-79
2023/02/07 09:15:30;;;;;;;10.80;8.63;;;6.20;99.90;;;;;;4999163;28;20218;-80
2023/02/07 09:17:58;;;;;;;11.32;8.65;;;6.00;99.90;;;;;;5003468;28;20490;-80
2023/02/07 09:20:27;;;;;;;10.20;8.65;;;5.80;99.90;;;;;;4995280;28;20227;-79
2023/02/07 09:25:41;;;;;;;9.45;8.55;;;5.80;99.90;;;;;;5001306;28;20186;-80
2023/02/07 09:28:10;;;;;;;10.50;9.18;;;6.00;99.90;;;;;;4998355;28;20191;-80
2023/02/07 09:30:40;;;;;;;10.33;9.23;;;6.30;99.90;;;;;;5001547;28;20227;-79
2023/02/07 09:33:09;;;;;;;10.93;9.25;;;6.10;99.90;;;;;;4997615;28;20445;-79
2023/02/07 09:35:39;;;;;;;10.70;9.53;;;6.10;99.90;;;;;;5000487;28;20804;-79
2023/02/07 09:38:09;;;;;;;11.10;8.63;;;6.30;99.90;;;;;;5001794;28;20463;-79
2023/02/07 09:40:38;;;;;;;8.97;8.17;;;6.90;99.90;;;;;;5001740;28;20514;-79
2023/02/07 09:43:17;;;;;;;10.60;9.30;;;7.50;99.90;;;;;;4999060;28;21131;-80
2023/02/07 09:45:52;;;;;;;9.97;8.90;;;8.00;99.90;;;;;;4997602;28;20459;-80
2023/02/07 09:48:25;;;;;;;9.10;8.23;;;8.30;99.90;;;;;;5000838;28;20480;-80
2023/02/07 09:50:57;;;;;;;9.53;8.63;;;8.60;99.90;;;;;;5004662;28;20518;-79
2023/02/07 09:53:28;;;;;;;10.03;7.80;;;8.90;99.90;;;;;;5000623;28;20514;-80
2023/02/07 09:55:59;;;;;;;9.30;8.40;;;8.90;99.90;;;;;;5000120;28;20512;-79
2023/02/07 09:58:40;;;;;;;10.00;8.43;;;9.30;99.90;;;;;;4999438;28;20575;-80
2023/02/07 10:01:12;;;;;;;8.70;7.90;;;9.50;99.90;;;;;;4998756;28;20483;-80
2023/02/07 10:03:46;;;;;;;13.37;8.00;;;9.90;99.90;;;;;;4997993;28;20464;-80
2023/02/07 10:06:22;;;;;;;10.80;8.93;;;10.10;99.90;;;;;;4997751;28;20536;-79
2023/02/07 10:08:53;;;;;;;7.83;7.03;;;10.00;99.90;;;;;;4999167;28;20544;-81
2023/02/07 10:11:34;;;;;;;9.10;8.17;;;10.20;99.90;;;;;;4999822;28;20482;-80
2023/02/07 10:14:17;;;;;;;9.13;7.90;;;10.50;99.90;;;;;;4999142;28;21037;-79
2023/02/07 10:16:57;;;;;;;8.37;7.53;;;10.80;97.30;;;;;;4999675;28;20478;-79
2023/02/07 10:19:40;;;;;;;7.67;6.70;;;10.70;96.10;;;;;;4998976;28;20469;-80
2023/02/07 10:22:23;;;;;;;8.37;7.43;;;10.80;92.10;;;;;;4999115;28;20462;-80
2023/02/07 10:25:22;;;;;;;8.30;7.53;;;11.00;99.90;;;;;;5001430;28;20509;-81
2023/02/07 10:28:01;;;;;;;8.63;7.87;;;11.40;91.40;;;;;;4992788;28;20564;-80
2023/02/07 10:30:34;;;;;;;9.63;8.63;;;11.90;92.70;;;;;;4999550;28;20475;-78
2023/02/07 10:33:12;;;;;;;14.13;8.27;;;12.10;85.40;;;;;;5001418;28;20543;-79
2023/02/07 10:35:40;;;;;;;8.50;7.63;;;12.30;84.20;;;;;;5004614;28;20563;-79
2023/02/07 10:38:21;;;;;;;9.20;8.30;;;12.70;87.40;;;;;;5000638;28;21734;-79
2023/02/07 10:40:55;;;;;;;9.00;8.10;;;13.30;91.70;;;;;;4998526;28;21293;-80
2023/02/07 10:43:28;;;;;;;9.00;8.20;;;13.70;92.90;;;;;;5001560;28;20470;-79
2023/02/07 10:46:00;;;;;;;8.43;7.63;;;13.90;90.90;;;;;;4999599;28;20544;-79
2023/02/07 10:48:33;;;;;;;8.83;8.07;;;14.30;90.80;;;;;;4998420;28;20844;-80
2023/02/07 10:51:03;;;;;;;8.73;7.93;;;14.60;92.50;;;;;;4996864;28;20541;-79
2023/02/07 10:53:46;;;;;;;8.33;7.47;;;15.10;93.30;;;;;;5000466;28;20445;-81
2023/02/07 10:56:26;;;;;;;8.23;7.60;;;15.20;92.80;;;;;;5001999;28;20495;-78
2023/02/07 10:58:57;;;;;;;8.47;7.67;;;15.50;93.50;;;;;;5004823;28;20491;-80
2023/02/07 11:01:27;;;;;;;8.17;7.47;;;16.00;95.50;;;;;;5002049;28;20522;-80
2023/02/07 11:03:56;;;;;;;7.83;7.13;;;16.00;92.80;;;;;;5000818;28;20510;-79
2023/02/07 11:06:27;;;;;;;8.40;7.70;;;16.20;92.50;;;;;;5002914;28;20480;-80
2023/02/07 11:09:18;;;;;;;7.63;7.00;;;16.00;90.40;;;;;;4997262;28;20580;-79
2023/02/07 11:11:49;;;;;;;6.80;6.20;;;15.80;86.10;;;;;;4996688;28;20538;-79
2023/02/07 11:14:25;;;;;;;7.60;6.83;;;15.10;76.10;;;;;;4995908;28;20889;-79
2023/02/07 11:16:54;;;;;;;8.20;6.87;;;14.60;66.70;;;;;;5001187;28;20502;-78
2023/02/07 11:19:25;;;;;;;7.57;6.77;;;14.60;61.10;;;;;;4994907;28;20482;-78
2023/02/07 11:21:57;;;;;;;7.97;6.43;;;14.00;56.40;;;;;;4999854;28;20445;-78
2023/02/07 11:24:30;;;;;;;7.60;6.90;;;13.80;54.60;;;;;;4996405;28;20446;-80
2023/02/07 11:27:02;;;;;;;6.10;5.70;;;13.60;52.20;;;;;;4998939;28;20452;-80
2023/02/07 11:29:32;;;;;;;7.37;6.67;;;13.80;52.40;;;;;;4978353;28;20892;-79
2023/02/07 11:32:02;;;;;;;9.03;7.83;;;14.50;58.70;;;;;;4970420;28;20519;-80
2023/02/07 11:34:42;;;;;;;6.10;5.60;;;14.80;61.50;;;;;;4968062;28;20462;-79
2023/02/07 11:37:26;;;;;;;6.43;5.90;;;15.50;71.70;;;;;;4962875;28;21155;-79
2023/02/07 11:39:57;;;;;;;8.50;6.40;;;16.00;81.80;;;;;;4994446;28;20558;-79
2023/02/07 11:42:30;;;;;;;7.27;6.57;;;15.40;71.90;;;;;;4995066;28;20534;-80
2023/02/07 11:45:04;;;;;;;6.60;6.10;;;14.20;56.00;;;;;;4986040;28;20576;-80
2023/02/07 11:47:34;;;;;;;6.40;5.83;;;13.30;45.00;;;;;;4985760;28;20450;-81
2023/02/07 11:50:05;;;;;;;7.27;6.57;;;12.50;33.80;;;;;;4988021;28;20489;-80
2023/02/07 11:52:38;;;;;;;7.70;7.10;;;11.60;26.10;;;;;;4998899;28;20454;-80
2023/02/07 11:55:22;;;;;;;6.93;6.23;;;11.20;22.20;;;;;;4983909;28;20486;-79
2023/02/07 11:57:50;;;;;;;6.03;5.43;;;10.80;18.50;;;;;;4996019;28;20998;-80
2023/02/07 12:00:22;;;;;;;5.73;5.23;;;10.40;14.60;;;;;;4988972;28;20861;-80
2023/02/07 12:02:59;;;;;;;6.77;5.97;;;10.10;12.30;;;;;;4985363;28;20456;-80
2023/02/07 12:05:29;;;;;;;6.80;6.20;;;9.90;10.90;;;;;;5003830;28;20457;-79
2023/02/07 12:08:01;;;;;;;6.47;5.80;;;9.90;11.10;;;;;;5009012;28;20464;-80
2023/02/07 12:10:35;;;;;;;6.67;6.10;;;10.00;12.80;;;;;;4996646;28;20480;-80
2023/02/07 12:13:07;;;;;;;7.17;6.50;;;9.90;13.80;;;;;;4990878;28;20468;-79
2023/02/07 12:15:39;;;;;;;6.30;5.80;;;9.80;24.00;;;;;;4991382;28;20559;-81
2023/02/07 12:18:14;;;;;;;6.37;5.80;;;9.80;12.90;;;;;;4981621;28;20484;-81
2023/02/07 12:20:52;;;;;;;7.03;5.83;;;9.70;11.50;;;;;;4996714;28;20471;-81
2023/02/07 12:23:25;;;;;;;6.13;5.53;;;9.80;9.30;;;;;;4988910;28;20468;-81
2023/02/07 12:26:17;;;;;;;6.67;6.07;;;9.50;7.30;;;;;;4988875;28;20581;-81
2023/02/07 12:28:51;;;;;;;5.17;4.67;;;9.60;6.90;;;;;;4996959;28;20443;-80
2023/02/07 12:31:46;;;;;;;4.83;4.43;;;9.10;1.50;;;;;;4998482;28;20457;-81
2023/02/07 12:34:20;;;;;;;4.37;4.00;;;9.30;4.10;;;;;;4990224;28;20465;-80
2023/02/07 12:36:55;;;;;;;4.30;3.87;;;9.40;5.50;;;;;;4991648;28;20541;-80
2023/02/07 12:39:32;;;;;;;4.47;3.70;;;9.30;4.00;;;;;;4989047;28;20463;-79
2023/02/07 12:42:15;;;;;;;4.70;4.30;;;9.10;1.40;;;;;;4991272;28;20454;-81
2023/02/07 12:44:52;;;;;;;3.90;3.60;;;8.50;1.00;;;;;;4994748;28;20542;-81
2023/02/07 12:47:28;;;;;;;4.27;3.97;;;8.30;1.00;;;;;;4990167;28;20460;-81
2023/02/07 12:50:11;;;;;;;4.27;3.87;;;8.40;1.00;;;;;;5002382;28;20502;-80
2023/02/07 12:52:49;;;;;;;3.83;3.63;;;8.50;1.00;;;;;;5003262;28;20464;-79
2023/02/07 12:55:26;;;;;;;4.20;3.83;;;8.50;1.00;;;;;;5000784;28;20550;-79
2023/02/07 12:58:07;;;;;;;4.27;3.97;;;8.40;1.00;;;;;;5005503;28;20982;-79
2023/02/07 13:00:50;;;;;;;5.33;4.70;;;8.20;1.00;;;;;;5003774;28;20480;-80
2023/02/07 13:03:31;;;;;;;8.23;4.40;;;8.20;1.00;;;;;;5000815;28;20455;-80
2023/02/07 13:06:11;;;;;;;5.47;4.90;;;8.20;1.00;;;;;;4999144;28;21328;-79
2023/02/07 13:08:50;;;;;;;5.97;4.90;;;8.50;1.00;;;;;;5003269;28;20462;-79
2023/02/07 13:11:27;;;;;;;5.07;4.37;;;8.40;1.00;;;;;;4992310;28;20562;-80
2023/02/07 13:14:10;;;;;;;4.40;4.00;;;8.30;1.00;;;;;;5000798;28;20500;-78
2023/02/07 13:16:48;;;;;;;5.23;4.27;;;8.50;1.00;;;;;;5002478;28;20463;-80